Resullts from the 32nd Annual New Times 5K - East Valley Tribune: News

Resullts from the 32nd Annual New Times 5K

Print
Font Size:
Default font size
Larger font size

Posted: Sunday, November 11, 2007 7:17 pm | Updated: 6:06 pm, Fri Oct 7, 2011.

See the results of the race.

PLACE NO. NAME SEX AGE TIME PACE DIV CITY, ST

1 379 ROGER CAHILL M 24 15:01 4:50 M2024 FLAGSTAFF, AZ

2 6660 DYLAN HATCHER M 18 15:27 4:59 M1619 ,

3 361 ALAN WALKER M 23 15:31 5:00 M2024 PHOENIX, AZ

4 563 BO REED M 41 15:44 5:04 M4044 PHOENIX, AZ

5 6379 SHANE SNYDER M 20 16:12 5:13 M2024 ,

6 3377 MATT STRAUGHN M 30 16:16 5:14 M3034 PHOENIX, AZ

7 6284 ZACH MASON M 18 16:18 5:15 M1619 ,

8 2751 MICHAEL ANDERSON M 19 16:19 5:16 M1619 ORO VALLEY, AZ

9 6279 DEREK CARDINALE M 18 16:22 5:16 M1619 ,

10 6413 TERRY BIA M 31 16:29 5:19 M3034 ,

11 585 JOHN BROWN M 25 16:32 5:20 M2529 PHOENIX, AZ

12 564 CHARLIE GOMEZ M 25 16:42 5:23 M2529 PHOENIX, AZ

13 1293 ARI RODRIGUEZ M 32 16:46 5:24 M3034 CHANDLER, AZ

14 3771 JUAN ESCALERA JR M 30 16:46 5:24 M3034 SCOTTSDALE, AZ

15 562 CARLOS LOPEZ M 18 16:51 5:26 M1619 PHOENIX, AZ

16 602 SALLY MEYERHOFF F 23 16:52 5:26 F2024 TEMPE, AZ

17 6401 ANTONIOUS CHEE M 18 17:00 5:29 M1619 ,

18 2896 ROD DENZINE M 47 17:01 5:29 M4549 SCOTTSDALE, AZ

19 3005 JORDAN HALL M 18 17:03 5:30 M1619 SCOTTSDALE, AZ

20 362 KEVIN NAUGHTON M 23 17:07 5:31 M2024 PHOENIX, AZ

21 193 JUNIOR MICHAEL M 25 17:12 5:32 M2529 PHOENIX, AZ

22 1343 RICARDO MALDONADO M 43 17:14 5:33 M4044 FOUNTAIN HILLS, AZ

23 3262 GARY PLANK M 50 17:29 5:38 M5054 FLAGSTAFF, AZ

24 587 RENE RAMIREZ M 27 17:35 5:40 M2529 PHOENIX, AZ

25 3426 EDDE VENZOR M 19 17:36 5:40 M1619 PHOENIX, AZ

26 315 MATT ARRIA M 31 17:37 5:41 M3034 PHOENIX, AZ

27 2638 SETH COPLEY M 17 17:47 5:44 M1619 FLAGSTAFF, AZ

28 590 DEREK STANEK M 16 17:53 5:46 M1619 PHOENIX, AZ

29 411 TOM CONNOLLY M 18 17:54 5:46 M1619 MURRIETA, CA

30 6350 JACK GRIFFEN M 15 17:56 5:47 M1115 ,

31 138 RAMIRO LOREDO M 43 17:57 5:47 M4044 PHOENIX, AZ

32 114 DAVEY CAGLE M 18 17:58 5:47 M1619 LAKESIDE, AZ

33 2639 ROGER LOHR M 18 17:58 5:47 M1619 FLAGSTAFF, AZ

34 6137 THOMAS LABLONDE M 47 18:03 5:49 M4549 ,

35 6114 AARON HINTON M 20 18:05 5:50 M2024 ,

36 581 NATHAN SEYLER M 18 18:05 5:50 M1619 SCOTTSDALE, AZ

37 582 CLINT SANTORO M 31 18:05 5:50 M3034 PHOENIX, AZ

38 655 KYLE WASHATKA M 17 18:05 5:50 M1619 CHANDLER, AZ

39 1294 JEFF MATSUMOTO M 36 18:06 5:50 M3539 TEMPE, AZ

40 6654 AB FLOURNOU M 20 18:14 5:53 M2024 , AL

41 3767 RON FRENCH M 44 18:15 5:53 M4044 PHOENIX, AZ

42 410 MARK BUCHANAN M 19 18:20 5:55 M1619 PHOENIX, AZ

43 592 QUINTIN MEMKEN M 16 18:21 5:55 M1619 PHOENIX, AZ

44 6603 MAX MCCOY M 16 18:24 5:56 M1619 ,

45 3925 LAUREN DVORACEK F 21 18:25 5:56 F2024 FLAGSTAFF, AZ

46 1803 LAHCEN FATIMI M 40 18:28 5:57 M4044 PHOENIX, AZ

47 171 RAMIRO ORTIZ M 27 18:37 6:00 M2529 TEMPE, AZ

48 2839 DAN CADRIEL M 44 18:41 6:01 M4044 GLENDALE, AZ

49 583 CHRIS STANDAGE M 37 18:42 6:01 M3539 PHOENIX, AZ

50 6599 BETH ELLICKSON F 40 18:45 6:02 F4044 ,

51 395 LUIS APODACA M 17 18:47 6:03 M1619 PHOENIX, AZ

52 3529 STEPHEN GRECO M 18 18:50 6:04 M1619 TEMPE, AZ

53 4042 DAVID DAMRON M 23 18:50 6:04 M2024 TEMPE, AZ

54 6606 NIKKI CODD F 18 18:52 6:05 F1619 ,

55 591 KEVIN JANKUNAS M 16 18:53 6:05 M1619 PHOENIX, AZ

56 589 DAVID RICHTER M 16 18:53 6:05 M1619 PHOENIX, AZ

57 6341 PAUL BRINKMANN M 48 19:01 6:07 M4549 ,

58 453 MICHAEL GRAY M 43 19:09 6:10 M4044 PHOENIX, AZ

59 394 JAMES OKEEFE M 14 19:10 6:11 M1115 SCOTTSDALE, AZ

60 1527 GARY GRIERSON M 57 19:12 6:11 M5559 CHANDLER, AZ

61 3229 LAURA ORLIE F 14 19:22 6:14 F1115 PHOENIX, AZ

62 1142 RICHARD TONN M 39 19:26 6:16 M3539 CHANDLER, AZ

63 944 RICHARD KOVACS M 32 19:28 6:16 M3034 SCOTTSDALE, AZ

64 1341 CLIFF ANDERSON M 48 19:29 6:16 M4549 TEMPE, AZ

65 1291 DEAN HEBERT M 51 19:29 6:17 M5054 TEMPE, AZ

66 1292 JIMMY HOLUB M 31 19:30 6:17 M3034 TEMPE, AZ

67 1290 RYAN SKUSE M 15 19:33 6:18 M1115 TEMPE, AZ

68 3238 ERICA PARKER F 19 19:34 6:18 F1619 TEMPE, AZ

69 6110 STEVEN GLASS M 18 19:45 6:22 M1619 ,

70 2637 JEREMY BENALLY M 19 19:47 6:22 M1619 FLAGSTAFF, AZ

71 184 STEVE PULOS M 55 19:50 6:23 M5559 FLAGSTAFF, AZ

72 579 BRADLEY HULSEY M 49 19:50 6:23 M4549 PHOENIX, AZ

73 112 GRANT WOOD M 15 19:55 6:25 M1115 PHOENIX, AZ

74 3380 JOHN STURDIVANT M 24 19:56 6:25 M2024 SCOTTSDALE, AZ

75 576 ZETTA ARMBRUSTER F 43 19:59 6:26 F4044 CHANDLER, AZ

76 1810 FERNANDO BEGAYE M 20 20:00 6:27 M2024 PHOENIX, AZ

77 1809 DERRICK BEGAYE M 17 20:09 6:29 M1619 PHOENIX, AZ

78 3644 CHELSEA CALOIA F 20 20:09 6:30 F2024 TEMPE, AZ

79 2228 MATTHEW WEST M 14 20:09 6:30 M1115 GILBERT, AZ

80 1342 BARRY REDMAN M 33 20:12 6:31 M3034 GILBERT, AZ

81 3970 MATLEENA OJAPALO F 22 20:17 6:32 F2024 FLAGSTAFF, AZ

82 3428 SAL VERA M 29 20:18 6:32 M2529 FLAGSTAFF, AZ

83 1386 STUART MOTY M 18 20:19 6:33 M1619 TEMPE, AZ

84 1089 ROBERT FLEET M 40 20:27 6:35 M4044 PHOENIX, AZ

85 1768 FERNANDO BEGAY M 21 20:34 6:38 M2024 CHINLE, AZ

86 6394 MICHELLE WESSON F 33 20:35 6:38 F3034 ,

87 6348 ANDREW GOKEN M 32 20:35 6:38 M3034 ,

88 6650 STEVE WEBER M 44 20:36 6:38 M4044 ,

89 443 RANDY BAUM M 49 20:41 6:40 M4549 PHOENIX, AZ

90 2227 ANDREW WEST M 13 20:46 6:41 M1115 GILBERT, AZ

91 2728 DEWEY JOHNSON M 37 20:48 6:42 M3539 PHOENIX, AZ

92 6359 TOM GONZALES M 36 20:50 6:43 M3539 ,

93 1321 ERIN BRESNAN F 31 20:53 6:43 F3034 SCOTTSDALE, AZ

94 6590 BRIAN FISHMAN M 24 20:54 6:44 M2024 ,

95 3707 PETER MASI M 55 21:01 6:46 M5559 TUCSON, AZ

96 1245 DANIEL BEGAY M 17 21:01 6:46 M1619 GANADO, AZ

97 546 MEGAN YOUNG F 17 21:02 6:46 F1619 GLENDALE, AZ

98 572 STEVE ANGLEY M 58 21:07 6:48 M5559 PHOENIX, AZ

99 783 FRED ORLIE M 12 21:07 6:48 M1115 PHOENIX, AZ

100 6561 ENRIQUE MARTINEZ M 14 21:07 6:48 M1115 ,

101 1308 MICHAEL CREGAR M 44 21:09 6:49 M4044 GILBERT, AZ

102 6420 MARK JAMES M 55 21:10 6:49 M5559 ,

103 1419 JOHN DALY M 36 21:10 6:49 M3539 MESA, AZ

104 3067 RAY JESUS M 55 21:10 6:49 M5559 WINDOW ROCK, AZ

105 3996 ZACH STANDERFER M 15 21:14 6:50 M1115 PHOENIX, AZ

106 1300 MENKES VAN DEN BRIEL M 31 21:16 6:51 M3034 TEMPE, AZ

107 1315 BRYAN MUGGE M 11 21:17 6:51 M1115 MESA, AZ

108 578 PAM STANDERFER F 46 21:17 6:51 F4549 PHOENIX, AZ

109 575 BARB MURRAY F 46 21:25 6:54 F4549 PHOENIX, AZ

110 492 MAL KENNY M 31 21:26 6:54 M3034 PHOENIX, AZ

111 224 NORM JANOFF M 57 21:28 6:55 M5559 PHOENIX, AZ

112 412 JORDAN MARTEL M 18 21:34 6:57 M1619 GLENDALE, AZ

113 3769 CRAIG DAVIDSON M 53 21:35 6:57 M5054 PHOENIX, AZ

114 446 JULIE GAMEZ F 17 21:35 6:57 F1619 GLENDALE, AZ

115 294 CHRISTINE NOLAN F 18 21:36 6:58 F1619 PHOENIX, AZ

116 3770 BRANDON EBERHART M 22 21:37 6:58 M2024 PHOENIX, AZ

117 818 HARRY SINGER M 40 21:40 6:59 M4044 PHOENIX, AZ

118 625 DINO FARFANTE M 45 21:46 7:01 M4549 PHOENIX, AZ

119 1317 KARL MUGGE M 41 21:48 7:01 M4044 MESA, AZ

120 3704 STEVE LIDDELL M 36 21:50 7:02 M3539 FLAGSTAFF, AZ

121 6389 RICK MILLER M 45 21:50 7:02 M4549 ,

122 574 DAVID DALY M 58 21:50 7:02 M5559 GLENDALE, AZ

123 3667 DEBORAH GOODWIN F 35 21:56 7:04 F3539 PHOENIX, AZ

124 494 BOB KOCH M 52 21:57 7:04 M5054 PHOENIX, AZ

125 6521 ERIC MUSE M 44 22:00 7:05 M4044 ,

126 3312 GERALD ROOSE M 50 22:05 7:07 M5054 GILBERT, AZ

127 1362 BRENDAN BAILEY M 13 22:07 7:07 M1115 TEMPE, AZ

128 1301 GREG MASON M 44 22:08 7:08 M4044 MESA, AZ

129 2710 JAN TEFFT F 49 22:09 7:08 F4549 SCOTTSDALE, AZ

130 3068 SANDY JESUS M 58 22:11 7:09 M5559 WINDOW ROCK, AZ

131 6140 AMANCIO SANTILLANO M 39 22:13 7:10 M3539 ,

132 577 CHRISTINE PATTEN F 47 22:16 7:10 F4549 PHOENIX, AZ

133 6352 DOUGLAS GRIFFEN M 51 22:17 7:11 M5054 ,

134 3539 SUE HUMPHRIES F 58 22:20 7:12 F5559 SEDONA, AZ

135 2552 ZACK MISHKIN M 22 22:23 7:13 M2024 SCOTTSDALE, AZ

136 3256 DAVID PETULLA M 53 22:25 7:13 M5054 SCOTTSDALE, AZ

137 493 KELLY BUCKLEY F 28 22:26 7:14 F2529 PHOENIX, AZ

138 6269 JACK BOWLING M 39 22:30 7:15 M3539 ,

139 3806 AARON GOODMAN M 26 22:31 7:15 M2529 PHOENIX, AZ

140 1528 DAVID GARCIA M 45 22:33 7:16 M4549 CHANDLER, AZ

141 353 CONNIE GARRITY F 47 22:35 7:16 F4549 SCOTTSDALE, AZ

142 6380 ADAM CAREY M 17 22:35 7:17 M1619 ,

143 779 SHERRIE MARTIN F 48 22:36 7:17 F4549 PHOENIX, AZ

144 6619 HELICE AGRIA F 31 22:36 7:17 F3034 ,

145 6600 ADAM BELLER M 12 22:38 7:17 M1115 ,

146 3753 MARC VALENZUELA M 19 22:39 7:18 M1619 ANTHEM, AZ

147 1302 PAUL VIRZUELA M 33 22:44 7:19 M3034 MESA, AZ

148 6416 STEVE MULLER M 41 22:44 7:19 M4044 ,

149 6388 HENRY MILLER M 14 22:46 7:20 M1115 ,

150 519 ROBERT JACKSON M 15 22:50 7:21 M1115 PHOENIX, AZ

151 3842 MARK PHIPPS M 40 22:52 7:22 M4044 MESA, AZ

152 3603 COLLEEN TIGHE F 17 22:54 7:22 F1619 GILBERT, AZ

153 3221 RICHARD NIX M 39 22:55 7:23 M3539 SURPRISE, AZ

154 2832 GRETCHEN BURNTON F 14 22:56 7:23 F1115 PHOENIX, AZ

155 1385 DAVID CONKLIN M 17 23:01 7:25 M1619 TEMPE, AZ

156 2551 CORY MISHKIN M 26 23:03 7:26 M2529 PHOENIX, AZ

157 169 PETER MARX M 40 23:04 7:26 M4044 PHOENIX, AZ

158 1007 BRAD BARBER M 19 23:04 7:26 M1619 SCOTTSDALE, AZ

159 544 JEFFERY GOLDSTEIN M 41 23:06 7:26 M4044 GLENDALE, AZ

160 187 STEVE KRAFFT M 52 23:08 7:27 M5054 PHOENIX, AZ

161 570 STEVE GRALLA M 64 23:10 7:28 M6064 PHOENIX, AZ

162 3593 TIM SIMMONS M 18 23:10 7:28 M1619 MESA, AZ

163 6387 JANE MILLER F 9 23:13 7:29 F0110 ,

164 409 AARON POOL M 18 23:13 7:29 M1619 PHOENIX, AZ

165 2518 KAREN DAVIS F 58 23:13 7:29 F5559 PEORIA, AZ

166 1819 WESLEY CONCHO M 19 23:17 7:30 M1619 CAREFREE, AZ

167 205 TONIA YAZZIE F 33 23:17 7:30 F3034 GANADO, AZ

168 621 CHERYL THOMPSON F 37 23:17 7:30 F3539 CHANDLER, AZ

169 2743 RUBEN AGUILERA M 55 23:18 7:30 M5559 PEORIA, AZ

170 1769 FERLYNDA BEGAY F 19 23:27 7:33 F1619 CHINLE, AZ

171 820 BRIAN CASEY M 43 23:28 7:33 M4044 CHANDLER, AZ

172 3748 JESSICA SPECTOR F 26 23:29 7:34 F2529 SCOTTSDALE, AZ

173 6372 DOM BRANAMAN M 69 23:31 7:35 M6569 ,

174 3142 TODD MABRY M 36 23:32 7:35 M3539 SCOTTSDALE, AZ

175 6397 BRIAN BIENIAS M 30 23:34 7:36 M3034 ,

176 1786 CHRIS STEGMAN M 38 23:35 7:36 M3539 GILBERT, AZ

177 1510 JON CURLEY M 33 23:36 7:36 M3034 NEWCOMB, NM

178 780 PATRICK MARTIN M 47 23:38 7:37 M4549 PHOENIX, AZ

179 3315 JOHN ROSSI M 60 23:38 7:37 M6064 TEMPE, AZ

180 472 BILL RAY M 23 23:42 7:38 M2024 PHOENIX, AZ

181 640 STEPHEN ANDERT M 39 23:42 7:38 M3539 MARICOPA, AZ

182 2323 GILBERT SOTO M 51 23:45 7:39 M5054 TUCSON, AZ

183 945 REBECCA KOVACS F 30 23:46 7:39 F3034 SCOTTSDALE, AZ

184 653 ROD KJERSTAD M 51 23:47 7:40 M5054 PHOENIX, AZ

185 428 BLAKE MARROU M 29 23:50 7:41 M2529 PHOENIX, AZ

186 435 SARA SHUGARS F 27 23:55 7:42 F2529 PEORIA, AZ

187 3877 RON WEST M 47 23:56 7:43 M4549 WINDOW ROCK, AZ

188 6345 EMILY BAKER F 28 23:57 7:43 F2529 ,

189 1028 TAMARA MONSON F 39 23:58 7:43 F3539 SCOTTSDALE, AZ

190 2769 ASHLEY BALCERZAK F 16 24:03 7:45 F1619 FOUNTAIN HILLS, AZ

191 3745 PATRICK SEIDEL M 47 24:05 7:45 M4549 PHOENIX, AZ

192 1243 ISABEL BRADY F 40 24:05 7:45 F4044 PHOENIX, AZ

193 3768 SCOTT JONES M 29 24:06 7:46 M2529 PHOENIX, AZ

194 1361 TELEYA BAILEY F 12 24:11 7:47 F1115 TEMPE, AZ

195 3062 DAN JADA M 33 24:17 7:49 M3034 GOLD CANYON, AZ

196 3561 RYAN LIND M 20 24:21 7:50 M2024 PEORIA, AZ

197 1135 MARK SECREST M 34 24:21 7:51 M3034 GILBERT, AZ

198 3418 SAM VALDIVIA M 22 24:27 7:52 M2024 PHOENIX, AZ

199 312 AMY HASTINGS F 32 24:27 7:53 F3034 PHOENIX, AZ

200 3239 DAVID PARNELL M 53 24:28 7:53 M5054 PHOENIX, AZ

201 357 ROBERT MANSOLILLO M 31 24:31 7:54 M3034 PHOENIX, AZ

202 6047 ROSCOE WILLIAMS M 46 24:33 7:54 M4549 ,

203 747 MIKE FLASTER M 14 24:33 7:54 M1115 PHOENIX, AZ

204 1449 MARIANO REYES M 33 24:36 7:56 M3034 MESA, AZ

205 3257 BETTY PHILLIPS F 43 24:39 7:56 F4044 CHANDLER, AZ

206 2831 EMMETT BURNTON M 14 24:40 7:57 M1115 PHOENIX, AZ

207 491 MARK HALVER M 52 24:42 7:57 M5054 PHOENIX, AZ

208 3560 MAGGIE LIND F 17 24:42 7:57 F1619 PEORIA, AZ

209 2770 JOHN BALCERZAK M 49 24:43 7:58 M4549 FOUNTAIN HILLS, AZ

210 1445 TODD ANDERSON M 38 24:45 7:58 M3539 CHANDLER, AZ

211 1057 DAVID WINTERS M 48 24:47 7:59 M4549 PHOENIX, AZ

212 196 JUAN ABAD-RIVERA M 40 24:47 7:59 M4044 AVONDALE, AZ

213 3936 JACOB FLICK M 13 24:48 7:59 M1115 GLENDALE, AZ

214 6218 MICHELLE FLORES F 20 24:55 8:02 F2024 ,

215 3729 ANDREW POET M 14 24:58 8:02 M1115 GILBERT, AZ

216 3773 MARK GERSHMAN M 49 24:59 8:03 M4549 SCOTTSDALE, AZ

217 3937 RICHARD FLICK M 42 25:00 8:03 M4044 GLENDALE, AZ

218 1123 JOYCE LAZAR F 43 25:01 8:03 F4044 MESA, AZ

219 6037 SAMIA GHARIB F 39 25:01 8:03 F3539 ,

220 1354 ANDREW LAYTON M 10 25:01 8:04 M0110 CHANDLER, AZ

221 431 BRIAN KULFAN M 30 25:05 8:05 M3034 SCOTTSDALE, AZ

222 1043 DAN CORREDOR M 36 25:05 8:05 M3539 SCOTTSDALE, AZ

223 490 KATHRYN BUCKLEY F 23 25:06 8:05 F2024 PHOENIX, AZ

224 4006 DANNY TRUJILLO M 20 25:08 8:06 M2024 PHOENIX, AZ

225 2787 DAN BEEKS M 43 25:08 8:06 M4044 PHOENIX, AZ

226 1573 STEPHANIE COFFMAN F 39 25:09 8:06 F3539 PHOENIX, AZ

227 571 STEVE SKARPHOL M 56 25:10 8:07 M5559 PHOENIX, AZ

228 580 CHRIS SEYLER M 49 25:12 8:07 M4549 SCOTTSDALE, AZ

229 1271 AMY LERMAN F 41 25:14 8:08 F4044 MESA, AZ

230 2762 PRITHI AVANAVADI F 25 25:20 8:10 F2529 TUCSON, AZ

231 1115 GRIFF KINSINGER M 46 25:21 8:10 M4549 CHANDLER, AZ

232 3967 PAUL MCLAUGHLIN M 43 25:23 8:11 M4044 LOS ANGELES, CA

233 364 MICHAEL RATCLIFF M 35 25:25 8:11 M3539 PHOENIX, AZ

234 3859 SHASHI SHAH M 24 25:26 8:12 M2024 TEMPE, AZ

235 117 ALEJANDRO RAMIREZ M 26 25:29 8:13 M2529 PHOENIX, AZ

236 2229 AMY WEST F 11 25:31 8:13 F1115 GILBERT, AZ

237 1316 LARA MUGGE F 40 25:31 8:13 F4044 MESA, AZ

238 6609 BRANDON SHERINIAN M 12 25:39 8:16 M1115 ,

239 1377 TALAL KAMAL M 55 25:41 8:16 M5559 PHOENIX, AZ

240 6291 EDY MILLER F 52 25:46 8:18 F5054 ,

241 789 SABRINA ANDERSON F 24 25:46 8:18 F2024 PHOENIX, AZ

242 370 JOHN TWAY M 60 25:46 8:18 M6064 PHOENIX, AZ

243 3452 PHILIP WEDDLE M 41 25:46 8:18 M4044 TEMPE, AZ

244 3293 PATRICK REYNOLDS M 41 25:46 8:18 M4044 PEORIA, AZ

245 736 KENT ALME M 24 25:48 8:19 M2024 PHOENIX, AZ

246 737 JAKE ALME M 12 25:48 8:19 M1115 PHOENIX, AZ

247 1060 MATTHEW SABO M 26 25:49 8:19 M2529 TEMPE, AZ

248 841 PRESCOTT POHL M 32 25:49 8:19 M3034 PHOENIX, AZ

249 1240 VALENTINE LECHUGA M 41 25:51 8:20 M4044 PHOENIX, AZ

250 326 TIMOTHY NORTH M 26 25:53 8:20 M2529 PHOENIX, AZ

251 3742 JUSTINA SABO F 28 25:53 8:20 F2529 PHOENIX, AZ

252 2775 GWENDOLYN BARLOW F 27 25:54 8:20 F2529 GLENDALE, AZ

253 2584 JOHN WIESER M 17 25:54 8:21 M1619 GLENDALE, AZ

254 3974 SARA PURCELL F 45 26:00 8:22 F4549 GLENDALE, AZ

255 6132 RONDA JAMEEL F 35 26:04 8:24 F3539 ,

256 6582 GLENN TSINGINE M 47 26:05 8:24 M4549 ,

257 835 GREG KLEIN M 43 26:07 8:25 M4044 GILBERT, AZ

258 246 EMMERSON TSOSIE M 39 26:09 8:25 M3539 WINDOW ROCK, AZ

259 4108 NICOLE SCHENK F 32 26:13 8:26 F3034 PHOENIX, AZ

260 795 AARON DUNN M 36 26:15 8:27 M3539 PHOENIX, AZ

261 3010 AVA HAMILTON F 7 26:17 8:28 F0110 CHANDLER, AZ

262 2833 HARRY BURNTON M 15 26:24 8:30 M1115 PHOENIX, AZ

263 817 DEBBIE WEXLER F 52 26:24 8:30 F5054 CHANDLER, AZ

264 6646 WILLIAM MCBRAYER M 43 26:24 8:30 M4044 ,

265 1353 JASON JR LAYTON M 12 26:27 8:31 M1115 CHANDLER, AZ

266 2834 STAN BURNTON M 13 26:28 8:31 M1115 PHOENIX, AZ

267 429 REBECCA RICE F 22 26:28 8:31 F2024 PHOENIX, AZ

268 1604 ROBERT MARCELLAS M 49 26:31 8:33 M4549 SCOTTSDALE, AZ

269 3150 STEPHEN MANGUM M 37 26:37 8:34 M3539 PHOENIX, AZ

270 6633 KRISTIN SCHWARTZ F 27 26:38 8:35 F2529 ,

271 2962 KAREN GALLUS F 27 26:38 8:35 F2529 GLENDALE, AZ

272 3079 JOHN JUAREZ M 51 26:39 8:35 M5054 GLENDALE, AZ

273 1776 BRIDGETT SEGAY F 26 26:39 8:35 F2529 PHOENIX, AZ

274 3527 CISSY GRECO F 53 26:44 8:37 F5054 TEMPE, AZ

275 3715 ROBERT MORGAN M 51 26:46 8:37 M5054 CHINLE, AZ

276 765 TRACY LENZ F 45 26:46 8:37 F4549 PHOENIX, AZ

277 473 KATIE BURKE F 23 26:48 8:38 F2024 PHOENIX, AZ

278 2366 JAMES MCINTOSH M 49 26:49 8:38 M4549 TEMPE, AZ

279 2421 ROBERT COX M 40 26:50 8:38 M4044 GILBERT, AZ

280 3011 ERIN HAMILTON F 24 26:50 8:39 F2024 SCOTTSDALE, AZ

281 186 NATALIE KRAFFT F 12 26:53 8:39 F1115 PHOENIX, AZ

282 6274 EVE BRUNEAU F 26 26:53 8:39 F2529 ,

283 4146 MARLON BUCHHOLTZ M 51 26:53 8:40 M5054 SCOTTSDALE, AZ

284 1779 MARCUS REED M 40 26:55 8:40 M4044 PHOENIX, AZ

285 1229 SARAH TRASK M 30 26:56 8:41 M3034 GILBERT, AZ

286 3695 LYNN KANESTA M 54 26:56 8:41 M5054 MESA, AZ

287 3669 KRISTA GOYARTS F 33 26:59 8:41 F3034 GLENDALE, AZ

288 1169 MARY MYRON F 39 26:59 8:41 F3539 GILBERT, AZ

289 1247 MARCIA JOHN F 42 27:00 8:42 F4044 KEAMS CANYON, AZ

290 1096 GARRETT PARTIN M 9 27:04 8:43 M0110 PHOENIX, AZ

291 1360 DANNY BAILEY M 40 27:05 8:43 M4044 TEMPE, AZ

292 1095 JOHN PARTIN M 43 27:09 8:45 M4044 PHOENIX, AZ

293 1275 LAURA DEMPSEY F 43 27:09 8:45 F4044 TEMPE, AZ

294 3730 JEREMY POET M 13 27:10 8:45 M1115 GILBERT, AZ

295 3537 KAREN HUGHES F 43 27:10 8:45 F4044 PHOENIX, AZ

296 6408 KEN SAVINO M 49 27:11 8:45 M4549 ,

297 539 GLENN MICHAEL M 57 27:14 8:46 M5559 GLENDALE, AZ

298 1065 TAYLOR WALL F 37 27:15 8:47 F3539 MESA, AZ

299 3500 CARMINA BANDA F 25 27:16 8:47 F2529 PHOENIX, AZ

300 1446 GREG ALBRIGHT M 57 27:18 8:47 M5559 MESA, AZ

301 316 JONES CHARLEY M 49 27:18 8:48 M4549 PHOENIX, AZ

302 217 TERESA SANTIAGO F 38 27:18 8:48 F3539 PHOENIX, AZ

303 6374 SCOTT STEPHENS M 50 27:20 8:48 M5054 ,

304 3844 THERESA REISS F 19 27:26 8:50 F1619 SCOTTSDALE, AZ

305 6724 UNKNOWN ENTRANT X 99 27:27 8:50 X9999 ,

306 1137 ANGELA CHEADLE F 17 27:28 8:51 F1619 GILBERT, AZ

307 973 KENT KRETCHMAR M 63 27:28 8:51 M6064 SCOTTSDALE, AZ

308 116 ANA HERNANDEZ F 24 27:32 8:52 F2024 PHOENIX, AZ

309 2451 JOHN SWIFT M 19 27:33 8:52 M1619 CHANDLER, AZ

310 504 TIM BOMMER M 66 27:35 8:53 M6569 PEORIA, AZ

311 1613 FRANCINE SANDMAN F 28 27:38 8:54 F2529 TEMPE, AZ

312 870 CAROLINE BEACH-OJERIO F 48 27:40 8:55 F4549 PEARL CITY, HI

313 6391 LINDA HUGHES F 50 27:40 8:55 F5054 ,

314 3528 JIM GRECO M 52 27:42 8:55 M5054 TEMPE, AZ

315 2483 MONICA VALDIVIA F 26 27:46 8:57 F2529 PHOENIX, AZ

316 6286 ASHLEY GARCIA F 23 27:47 8:57 F2024 ,

317 2788 CARRIE BEHRENS F 30 27:53 8:59 F3034 SCOTTSDALE, AZ

318 6220 ALMA FUENTES F 35 27:55 8:59 F3539 ,

319 622 HEATHER LANDERS F 35 27:56 9:00 F3539 CHANDLER, AZ

320 871 JANET FOOTE F 49 27:57 9:00 F4549 SCOTTSDALE, AZ

321 681 ROSE MILLER F 35 27:58 9:01 F3539 CHANDLER, AZ

322 792 ADAM BREEZE M 31 27:58 9:01 M3034 PHOENIX, AZ

323 896 JACOB BOWMAN M 32 27:58 9:01 M3034 PHOENIX, AZ

324 3774 ROB WALLACK M 55 28:00 9:01 M5559 PHOENIX, AZ

325 3542 MARK JACOBY M 43 28:00 9:01 M4044 PHOENIX, AZ

326 1334 SANDRA HOEFFER F 31 28:00 9:01 F3034 PHOENIX, AZ

327 6265 KARINE RHODELANDER F 33 28:01 9:02 F3034 ,

328 3763 CHRISTINE WILKES F 14 28:01 9:02 F1115 MESA, AZ

329 3116 JAMESON LANGLOIS M 11 28:03 9:02 M1115 TEMPE, AZ

330 3244 SUZANNE PAWLOWSKI F 38 28:04 9:02 F3539 TEMPE, AZ

331 3820 JARED KING M 26 28:05 9:03 M2529 MESA, AZ

332 3837 JOLENE NEWMAN F 29 28:07 9:03 F2529 PHOENIX, AZ

333 3871 JAMES TOEL M 36 28:08 9:04 M3539 SCOTTSDALE, AZ

334 6270 AMANDA MAHAN F 36 28:08 9:04 F3539 ,

335 1289 CLAIRE MOTY F 17 28:09 9:04 F1619 SCOTTSDALE, AZ

336 6617 OCTAVIA JONES F 36 28:14 9:06 F3539 ,

337 1807 BECKY WALKDEN F 54 28:15 9:06 F5054 PRESCOTT VALLEY, AZ

338 6049 BABU VENKATESH GIRIDAR M 11 28:16 9:06 M1115 ,

339 6701 NICOLE LAKE F 19 28:18 9:07 F1619 ,

340 2276 CHRIS KASTURI M 30 28:18 9:07 M3034 PHOENIX, AZ

341 3876 HATTIE WEST F 47 28:20 9:07 F4549 WINDOW ROCK, AZ

342 475 NICOLE PONDELL F 26 28:23 9:08 F2529 TEMPE, AZ

343 3624 ROSA RODRIGUEZ F 34 28:24 9:09 F3034 TEMPE, AZ

344 3135 AMY LONG F 28 28:25 9:09 F2529 PHOENIX, AZ

345 6127 J BENTON M 31 28:28 9:10 M3034 ,

346 1226 BRITTANY BAHR F 21 28:28 9:10 F2024 CHANDLER, AZ

347 2703 BRANDON MENDOZA M 25 28:29 9:10 M2529 PHOENIX, AZ

348 6645 TERRI HALL F 46 28:29 9:10 F4549 ,

349 4039 STEPHANIE COLLETTE F 24 28:30 9:11 F2024 CAVE CREEK, AZ

350 2272 KLAUS BONAPARTE M 32 28:30 9:11 M3034 CHANDLER, AZ

351 3064 ELVIS JAKE M 45 28:31 9:11 M4549 MESA, AZ

352 3608 DEBRA WILSON F 47 28:33 9:12 F4549 PHOENIX, AZ

353 438 TODD VERKEST M 34 28:35 9:12 M3034 PHOENIX, AZ

354 748 SUZY FLASTER F 12 28:35 9:12 F1115 PHOENIX, AZ

355 6376 FRANCE MARQUIS F 49 28:36 9:13 F4549 ,

356 3666 BRIAN GIBSON M 18 28:37 9:13 M1619 TEMPE, AZ

357 6659 JAMES WALTON M 62 28:38 9:13 M6064 ,

358 3072 MELISSA JIMRO F 22 28:40 9:14 F2024 CHANDLER, AZ

359 836 DON PAGE M 51 28:41 9:14 M5054 GILBERT, AZ

360 3215 DAVID NEPVEUX M 26 28:45 9:15 M2529 PHOENIX, AZ

361 535 CLARK MCGEE M 49 28:50 9:17 M4549 GLENDALE, AZ

362 3571 DANA MIDKIFF F 31 28:52 9:18 F3034 PHOENIX, AZ

363 461 KELLY SANDERS F 34 28:55 9:19 F3034 PHOENIX, AZ

364 1154 ELIZABETH ULLMAN F 25 28:55 9:19 F2529 CHANDLER, AZ

365 2450 TOM SWIFT M 51 28:55 9:19 M5054 CHANDLER, AZ

366 6285 JODY LAUDLE F 32 28:57 9:19 F3034 ,

367 6571 JON ESPERAS M 47 28:59 9:20 M4549 ,

368 844 VANESSA MOE F 26 28:59 9:20 F2529 PEORIA, AZ

369 2619 JACOB MONTPLAISIR M 13 28:59 9:20 M1115 GILBERT, AZ

370 1412 JULLIE ANN DIMMERY F 33 29:00 9:20 F3034 APACHE JUNCTION, AZ

371 1410 EMILY WHITE F 39 29:00 9:20 F3539 CHANDLER, AZ

372 1796 ROBIN HENDERSON M 45 29:00 9:21 M4549 PHOENIX, AZ

373 1797 TANIA HENDERSON F 11 29:01 9:21 F1115 PHOENIX, AZ

374 6653 JOHN KRAINSKI M 37 29:01 9:21 M3539 ,

375 1144 KARA RIBBE F 16 29:04 9:22 F1619 GILBERT, AZ

376 2291 IVONNE BERKOWITZ F 31 29:04 9:22 F3034 CHANDLER, AZ

377 531 MADISON ECKERT F 11 29:05 9:22 F1115 PEORIA, AZ

378 6418 BOB WARD M 58 29:06 9:22 M5559 ,

379 2709 FRANK SJURSEN M 69 29:09 9:23 M6569 APACHE JUNCTION, AZ

380 3522 KATHLEEN DUMARS F 40 29:09 9:23 F4044 PHOENIX, AZ

381 251 HEIDI STAUDENMAIER F 48 29:09 9:23 F4549 PHOENIX, AZ

382 6119 CHISAKO HAZEL F 41 29:14 9:25 F4044 ,

383 6648 MELISSA STOTTS F 12 29:16 9:26 F1115 ,

384 768 SHAI SCHENDEL F 30 29:16 9:26 F3034 PHOENIX, AZ

385 1143 GAYLE BLANCHARD F 45 29:18 9:26 F4549 GILBERT, AZ

386 4027 ERIN ARMSTRONG F 30 29:18 9:26 F3034 GILBERT, AZ

387 1056 ELLIE WINTERS F 11 29:19 9:26 F1115 PHOENIX, AZ

388 2756 LUCIANA ANTHONY F 32 29:19 9:27 F3034 CHANDLER, AZ

389 1140 MAUREEN TONN F 39 29:21 9:27 F3539 CHANDLER, AZ

390 2882 IRIS CULTON F 15 29:21 9:27 F1115 GLENDALE, AZ

391 3643 MEGAN BUTLER F 27 29:22 9:27 F2529 SCOTTSDALE, AZ

392 1080 EVELYN AVERY F 51 29:24 9:28 F5054 HOUCK, AZ

393 695 RANDY MILLER M 49 29:26 9:29 M4549 PHOENIX, AZ

394 234 JOHN PAHLSTROM M 71 29:28 9:29 M7074 PHOENIX, AZ

395 2987 NGUYEN GORDON F 60 29:32 9:31 F6064 MESA, AZ

396 3869 SUSAN THOMPSON F 39 29:32 9:31 F3539 PHOENIX, AZ

397 256 PAT BOUCOS F 60 29:34 9:31 F6064 PHOENIX, AZ

398 816 BRAD CASAVAN M 30 29:34 9:31 M3034 MESA, AZ

399 1771 KATHERINA MESSINA F 31 29:35 9:32 F3034 PHOENIX, AZ

400 2681 LINDA BERGQUIST F 60 29:38 9:33 F6064 MESA, AZ

401 3038 SAMMY HOLTZCLAW F 15 29:40 9:33 F1115 PHOENIX, AZ

402 2210 SHERRY STANLEY F 46 29:41 9:34 F4549 MESA, AZ

403 3929 SELENA EOFF F 28 29:42 9:34 F2529 PHOENIX, AZ

404 1823 LAURA RIGHTENBURG F 42 29:43 9:34 F4044 SCOTTSDALE, AZ

405 1824 KARL SCHNEIDER M 34 29:43 9:34 M3034 SCOTTSDALE, AZ

406 1619 GUS DALLMAN M 33 29:46 9:35 M3034 PHOENIX, AZ

407 1213 KATHRYN BEEBE F 53 29:46 9:35 F5054 APACHE JUNCTION, AZ

408 2618 KRISTI MONTPLAISIR F 48 29:51 9:37 F4549 GILBERT, AZ

409 3146 ALLISON MAIO F 13 29:52 9:37 F1115 PHOENIX, AZ

410 3734 ASHLYNN QUIGLEY F 13 29:52 9:37 F1115 SCOTTSDALE, AZ

411 1225 ROBERT JONES M 56 29:53 9:37 M5559 CHANDLER, AZ

412 133 KRISTEN HAUPTMAN F 8 29:53 9:38 F0110 SCOTTSDALE, AZ

413 489 DAVID DOUGLAS M 20 29:53 9:38 M2024 PHOENIX, AZ

414 136 RON HAUPTMAN M 42 29:53 9:38 M4044 SCOTTSDALE, AZ

415 6055 COURTNEY POWELL F 23 29:58 9:39 F2024 ,

416 274 PAULINE BEGAY F 44 29:58 9:39 F4044 HOLBROOK, AZ

417 554 BOBBI HALVEVSON F 44 30:02 9:40 F4044 PHOENIX, AZ

418 849 DANIEL CHENEY M 24 30:02 9:40 M2024 CHANDLER, AZ

419 2623 MELODY ROMERO F 36 30:03 9:41 F3539 CHANDLER, AZ

420 204 BRITTANY YAZZIE F 13 30:03 9:41 F1115 GANADO, AZ

421 1774 SEAN GAUSE M 20 30:03 9:41 M2024 PHOENIX, AZ

422 1773 SAMUEL GAUSE M 17 30:04 9:41 M1619 PHOENIX, AZ

423 6604 MIKE MCCOY M 45 30:08 9:42 M4549 ,

424 1452 BOB GUMFORY M 50 30:10 9:43 M5054 TEMPE, AZ

425 1325 JOHN HALONEN M 54 30:11 9:43 M5054 TEMPE, AZ

426 3764 ROGER WILKES M 48 30:12 9:44 M4549 MESA, AZ

427 6121 THEODUS TONEY III M 39 30:15 9:45 M3539 ,

428 1788 MICHELLE BACHAND F 31 30:16 9:45 F3034 SCOTTSDALE, AZ

429 3889 TABITHA ARMENT F 14 30:18 9:46 F1115 PHOENIX, AZ

430 3282 JAN RAY F 44 30:23 9:47 F4044 BRISTOW, VA

431 1588 CHRIS AURON M 45 30:23 9:47 M4549 CHANDLER, AZ

432 1708 TAMI ASPEITIA F 47 30:27 9:48 F4549 MESA, AZ

433 2808 BRIAN BOWEN M 32 30:31 9:50 M3034 PHOENIX, AZ

434 2749 ELIZABETH ALLEN F 43 30:32 9:50 F4044 TEMPE, AZ

435 498 LISA SMITH F 29 30:34 9:51 F2529 PHOENIX, AZ

436 3008 JOHN HAMBLETON M 57 30:37 9:51 M5559 SCOTTSDALE, AZ

437 1616 DOREEN CHAVARRIA F 44 30:41 9:53 F4044 TEMPE, AZ

438 6044 DONNIE SHEPARD M 99 30:42 9:53 M0000 ,

439 1049 SARAH KILLINGSWORTH F 26 30:42 9:53 F2529 SCOTTSDALE, AZ

440 225 STACY COURTRIGHT F 37 30:43 9:54 F3539 GLENDALE, AZ

441 3965 KATHY MCGRATH F 49 30:45 9:54 F4549 SCOTTSDALE, AZ

442 631 LORIE VO F 38 30:46 9:54 F3539 TEMPE, AZ

443 3039 CHRISTINE HOOPES F 42 30:46 9:54 F4044 HIGLEY, AZ

444 1365 SHANNON BROCK F 32 30:47 9:55 F3034 GILBERT, AZ

445 2279 JUSTIN NELSON M 27 30:47 9:55 M2529 MESA, AZ

446 1438 CONSTANCE HALONEN F 21 30:48 9:55 F2024 TEMPE, AZ

447 3355 GARRETT SNOOK M 37 30:48 9:55 M3539 CHANDLER, AZ

448 596 AARON KUCK M 22 30:50 9:56 M2024 MARICOPA, AZ

449 597 MEGAN DRAKE F 23 30:51 9:56 F2024 CHANDLER, AZ

450 3941 CARRIE GABROY F 32 30:55 9:57 F3034 TEMPE, AZ

451 6417 PRISCILLA HUBBARD F 26 30:56 9:58 F2529 ,

452 2278 DEBRA VOSS F 31 31:03 10:00 F3034 MESA, AZ

453 363 BRIDGET BADOWICH F 66 31:03 10:00 F6569 PHOENIX, AZ

454 1618 GRETCHEN WOLFE F 32 31:06 10:01 F3034 PHOENIX, AZ

455 2716 JENNIFER BROCKMAN F 28 31:07 10:01 F2529 GILBERT, AZ

456 847 LEANN LATVAAHO F 35 31:13 10:03 F3539 PHOENIX, AZ

457 1821 MAGDALENA MARTINIC F 51 31:13 10:03 F5054 PHOENIX, AZ

458 1050 KELLY BRUTSCH F 26 31:13 10:03 F2529 MESA, AZ

459 6276 LARRY NASS M 55 31:13 10:03 M5559 ,

460 2959 DAN FULLER M 49 31:14 10:04 M4549 MESA, AZ

461 2402 BRIAN DELL'ERGO M 30 31:17 10:05 M3034 PHOENIX, AZ

462 3935 TROY FINLEY JR M 11 31:19 10:05 M1115 MESA, AZ

463 2995 RANDY GRICIUS M 51 31:21 10:06 M5054 VAIL, AZ

464 794 MICHELLE DUNN F 35 31:21 10:06 F3539 PHOENIX, AZ

465 2554 DONNA MORRIS F 40 31:23 10:06 F4044 GILBERT, AZ

466 2968 NICK GASSER M 30 31:23 10:06 M3034 CHANDLER, AZ

467 6652 ADAM KRAINSKI M 12 31:23 10:06 M1115 ,

468 821 MICHAEL S BUSCHBACKER II M 40 31:24 10:07 M4044 PHOENIX, AZ

469 327 EWA NORTH F 24 31:24 10:07 F2024 PHOENIX, AZ

470 1396 LISA DASSIE F 38 31:25 10:07 F3539 QUEEN CREEK, AZ

471 3821 MICHAEL KREBS M 50 31:25 10:07 M5054 SCOTTSDALE, AZ

472 2996 VICKI GRICIUS F 49 31:28 10:08 F4549 VAIL, AZ

473 3469 CONNIE WILLIAMS F 40 31:29 10:09 F4044 KAYENTA, AZ

474 6393 KRISTEN MEDLEY F 25 31:30 10:09 F2529 ,

475 6584 LAUREN JONES F 24 31:30 10:09 F2024 ,

476 3933 AMY FINLEY F 37 31:31 10:09 F3539 MESA, AZ

477 1470 JACQUE SONG F 42 31:31 10:09 F4044 PHOENIX, AZ

478 2741 WENDY ACKERMAN F 26 31:33 10:10 F2529 AVONDALE, AZ

479 970 MITCHELL WILENSKY M 56 31:33 10:10 M5559 SCOTTSDALE, AZ

480 3290 CRISTINE REYNOLDS F 39 31:38 10:11 F3539 PEORIA, AZ

481 2951 MICHAEL FRANZEN M 41 31:39 10:12 M4044 AVONDALE, AZ

482 325 DENISE FLORES F 33 31:42 10:13 F3034 PHOENIX, AZ

483 1471 JEFFREY SONG M 45 31:43 10:13 M4549 PHOENIX, AZ

484 3476 CAROLYN WOODS F 36 31:45 10:14 F3539 GILBERT, AZ

485 6398 LARRY BIENIAS M 54 31:46 10:14 M5054 ,

486 3245 SIDNEE PECK F 25 31:46 10:14 F2529 SCOTTSDALE, AZ

487 1591 LEIGH WEBB F 28 31:47 10:14 F2529 CHANDLER, AZ

488 1590 THOMAS POLEN M 34 31:47 10:14 M3034 CHANDLER, AZ

489 4162 LAUREL THOMAS F 33 31:47 10:14 F3034 MESA, AZ

490 928 FAITH BONINGER F 42 31:51 10:15 F4044 SCOTTSDALE, AZ

491 927 DAVID BONINGER M 43 31:51 10:15 M4044 SCOTTSDALE, AZ

492 6538 JEANNE ANCIAUX F 46 31:55 10:17 F4549 ,

493 3884 JACQUELINE PITTEL F 24 31:58 10:18 F2024 SCOTTSDALE, AZ

494 6703 JOE ENGELBRECHT M 24 31:58 10:18 M2024 SCOTTSDALE, AZ

495 1707 ANNA BECERRA F 34 32:02 10:19 F3034 TEMPE, AZ

496 6725 UNKNOWN ENTRANT X 99 32:05 10:20 X9999 ,

497 6403 KARRI HILL F 35 32:05 10:20 F3539 ,

498 6056 MIKE POWELL M 51 32:14 10:23 M5054 ,

499 422 AMY MCSHEFFREY F 39 32:18 10:24 F3539 PHOENIX, AZ

500 2324 KAREN WENTZEL F 53 32:18 10:24 F5054 TUCSON, AZ

501 2385 JIM COMBE M 29 32:18 10:24 M2529 CHANDLER, AZ

502 1411 ROBIN SYLVESTER F 44 32:18 10:24 F4044 GUADALUPE, AZ

503 2384 TAWNYA COMBE F 29 32:19 10:24 F2529 CHANDLER, AZ

504 1460 REIS NIELSEN M 53 32:19 10:24 M5054 CHANDLER, AZ

505 1189 EMILY NGUYEN F 15 32:20 10:25 F1115 MESA, AZ

506 4025 JASON ANDERSON M 23 32:20 10:25 M2024 TEMPE, AZ

507 6520 ALEXANDER MYER M 38 32:21 10:25 M3539 ,

508 1305 THU HUYNH F 22 32:22 10:25 F2024 GILBERT, AZ

509 1530 PAT MONAHAN M 46 32:23 10:26 M4549 CHANDLER, AZ

510 3788 DIANA BUNDSCHUH F 32 32:23 10:26 F3034 CHANDLER, AZ

511 2404 KEN CHEREVKA M 28 32:27 10:27 M2529 AVONDALE, AZ

512 1159 ALEXANDRIA ROSS F 17 32:28 10:27 F1619 GILBERT, AZ

513 3629 ESTHER WILLIAMSON F 26 32:29 10:28 F2529 PHOENIX, AZ

514 1272 BETH GELBERT F 45 32:29 10:28 F4549 PHOENIX, AZ

515 4090 SHARON MCKENZIE F 38 32:30 10:28 F3539 PHOENIX, AZ

516 2589 GRACE YATES F 43 32:30 10:28 F4044 TEMPE, AZ

517 6608 PHILLIP CAMITSES M 54 32:37 10:30 M5054 ,

518 323 JACOB BRODISH M 6 32:37 10:30 M0110 AVONDALE, AZ

519 6637 ARLENE YAZZIE F 35 32:38 10:30 F3539 ,

520 1145 JACK BLANCHARD M 52 32:38 10:30 M5054 GILBERT, AZ

521 848 KEVIN MIRGEIER M 25 32:46 10:33 M2529 SUN LAKES, AZ

522 2202 ROGER WALTER M 38 32:47 10:33 M3539 GLENDALE, AZ

523 730 COLIN RUANE M 42 32:47 10:33 M4044 CHANDLER, AZ

524 6116 JACOB RAWNSLEY M 12 32:48 10:34 M1115 ,

525 3536 JENNIFER HOLMES F 34 32:50 10:34 F3034 MARICOPA, AZ

526 6636 HUBERT CRANK M 42 32:52 10:35 M4044 ,

527 6378 BARB BREITENBACH F 68 32:54 10:36 F6569 ,

528 1224 MARY LOU JONES F 51 32:57 10:37 F5054 CHANDLER, AZ

529 784 MATTHEW LEVARIO M 75 32:58 10:37 M7598 SCOTTSDALE, AZ

530 241 BRENDA HERD F 26 33:00 10:38 F2529 SCOTTSDALE, AZ

531 6278 AMANDA BASSETT F 9 33:01 10:38 F0110 ,

532 2863 JOE CHURA M 35 33:04 10:39 M3539 PHOENIX, AZ

533 6390 DENISE BASSETT F 45 33:06 10:40 F4549 ,

534 6711 CHARLENE GISHIE F 50 33:07 10:40 F5054 PHOENIX, AZ

535 6117 ROB RAWNSLEY M 38 33:09 10:41 M3539 ,

536 189 KRIS COATNEY F 39 33:10 10:41 F3539 PHOENIX, AZ

537 643 SERENA MEITNER F 32 33:11 10:41 F3034 TEMPE, AZ

538 644 JOEL FERCH M 33 33:11 10:41 M3034 TEMPE, AZ

539 2387 CANDACE LEW F 54 33:12 10:41 F5054 TEMPE, AZ

540 220 JENNIFER KAARUP F 27 33:13 10:42 F2529 GLENDALE, AZ

541 3071 BILL JIMRO M 51 33:17 10:43 M5054 CHANDLER, AZ

542 6577 LEXI NORIEGA F 13 33:17 10:43 F1115 ,

543 322 SUSAN BRODISH F 38 33:19 10:44 F3539 AVONDALE, AZ

544 4012 KRISTIN WEST F 21 33:25 10:46 F2024 TEMPE, AZ

545 2231 JAKE SHACKELFORD M 8 33:27 10:46 M0110 MESA, AZ

546 1197 KIRK WILLSEY M 38 33:29 10:47 M3539 GILBERT, AZ

547 1406 TOM COX M 25 33:29 10:47 M2529 CHANDLER, AZ

548 1198 RACHEL WILLSEY F 34 33:29 10:47 F3034 GILBERT, AZ

549 3833 SHARON SANDERS F 46 33:29 10:47 F4549 SCOTTSDALE, AZ

550 2730 LISA SCHROEDER F 39 33:31 10:48 F3539 GILBERT, AZ

551 2467 CAROL WEBER F 40 33:36 10:49 F4044 MESA, AZ

552 2203 LISA MARTIN F 41 33:36 10:49 F4044 MESA, AZ

553 2226 TIMOTHY WEST M 44 33:39 10:50 M4044 GILBERT, AZ

554 1246 DANIEL BEGAY M 41 33:40 10:51 M4044 GANADO, AZ

555 260 GLENN ELMS M 13 33:41 10:51 M1115 WADDELL, AZ

556 402 RENEE DUCHENEAUX F 46 33:42 10:51 F4549 PHOENIX, AZ

557 3388 CARLA TAGLIARINI F 23 33:43 10:52 F2024 TEMPE, AZ

558 6581 CANDACE TSINGINE F 46 33:43 10:52 F4549 ,

559 3322 ANNAMARIA SAVOCA F 40 33:44 10:52 F4044 PHOENIX, AZ

560 1743 KATHY BAKER F 52 33:46 10:52 F5054 TEMPE, AZ

561 1744 CHRIS BAKER M 47 33:46 10:52 M4549 TEMPE, AZ

562 273 NEVA BEGAY F 56 33:48 10:53 F5559 PHOENIX, AZ

563 2346 DAVID ZANDER M 49 33:48 10:53 M4549 MESA, AZ

564 6361 AMANDA CLARKE F 36 33:52 10:54 F3539 ,

565 286 LARS STIGGSON M 52 33:53 10:55 M5054 PHOENIX, AZ

566 3081 ELLIE KALLAL F 64 33:56 10:56 F6064 SCOTTSDALE, AZ

567 284 ALAN WINGER M 12 33:57 10:56 M1115 PHOENIX, AZ

568 630 COOKIE FEINBERG F 45 34:01 10:57 F4549 TEMPE, AZ

569 143 MIDORI HOMMA F 34 34:02 10:58 F3034 CAVE CREEK, AZ

570 632 HANNAH FEINBERG F 12 34:02 10:58 F1115 TEMPE, AZ

571 2694 JACK FRANDSEN M 75 34:02 10:58 M7598 MORRISTOWN, AZ

572 1066 NATALIE ERIVEZ F 11 34:10 11:00 F1115 BUCKEYE, AZ

573 285 RICH WINGER M 59 34:11 11:01 M5559 PHOENIX, AZ

574 3465 JOY WHITNEYBELL F 48 34:13 11:01 F4549 PHOENIX, AZ

575 6585 BRIAN NOVAK M 48 34:23 11:04 M4549 ,

576 3992 CAROL SOPER F 52 34:27 11:06 F5054 GLENDALE, AZ

577 3993 STEVEN SOPER M 48 34:27 11:06 M4549 GLENDALE, AZ

578 2391 DANA DUMINS F 38 34:28 11:06 F3539 PHOENIX, AZ

579 2390 ERIN MAIORANO F 37 34:36 11:08 F3539 PHOENIX, AS

580 3201 HEATHER MOORE F 30 34:36 11:09 F3034 ANTHEM, AZ

581 3200 AUSTIN MOORE M 32 34:37 11:09 M3034 ANTHEM, AZ

582 2550 MARTY MICHELSON M 61 34:40 11:10 M6064 GILBERT, AZ

583 3048 SUSAN HUERTA-VERA F 29 34:43 11:11 F2529 FLAGSTAFF, AZ

584 1347 KATIE NEUMAN F 23 34:53 11:14 F2024 TEMPE, AZ

585 135 VALERIE HAUPTMAN F 37 34:55 11:15 F3539 SCOTTSDALE, AZ

586 3471 HANNAH WILLIAMS F 17 34:55 11:15 F1619 GILBERT, AZ

587 595 SARAH BARRIOS F 21 34:56 11:15 F2024 CHANDLER, AZ

588 3132 BOB LOFTON M 46 34:56 11:15 M4549 PHOENIX, AZ

589 3133 RYAN LOFTON M 13 34:57 11:15 M1115 PHOENIX, AZ

590 3557 NICOLE LEITER F 33 34:59 11:16 F3034 SCOTTSDALE, AZ

591 3556 DEREK LEITER M 29 34:59 11:16 M2529 SCOTTSDALE, AZ

592 2687 PATRICIA DODGE-ROBINSON F 58 35:02 11:17 F5559 PHOENIX, AZ

593 741 DANIEL SLOSKY M 16 35:03 11:17 M1619 PHOENIX, AZ

594 6045 RICHARD SLOSKY M 49 35:03 11:17 M4549 ,

595 3014 SHERRI HARN F 25 35:04 11:18 F2529 TEMPE, AZ

596 3199 LYNN MOOI F 23 35:05 11:18 F2024 MESA, AZ

597 3149 KATIE MANGIERI F 22 35:05 11:18 F2024 CHANDLER, AZ

598 3994 LAURA SPECK F 26 35:06 11:18 F2529 TEMPE, AZ

599 6115 BRETT FERA M 25 35:06 11:18 M2529 ,

600 2261 PHIL NEMETH M 32 35:07 11:19 M3034 PHOENIX, AZ

601 6364 CELESTE HOLM F 20 35:11 11:20 F2024 ,

602 3819 LIZA KEENAN F 30 35:12 11:20 F3034 CHANDLER, AZ

603 1044 SUSAN HOOKS F 48 35:13 11:21 F4549 PHOENIX, AZ

604 6618 ROBERT MURPHY M 26 35:13 11:21 M2529 ,

605 427 CLARISA AGUILERA F 12 35:15 11:21 F1115 PHOENIX, AZ

606 426 LETICIA AGUILERA F 40 35:18 11:22 F4044 PHOENIX, AZ

607 2547 ELLEN MAGIN F 37 35:19 11:22 F3539 PHOENIX, AZ

608 2201 ANDREA BONILLA F 30 35:22 11:23 F3034 TEMPE, AZ

609 879 LORETTA MCPHEETERS F 32 35:23 11:24 F3034 PHOENIX, AZ

610 152 ANDREW APPLEN M 9 35:24 11:24 M0110 PEORIA, AZ

611 1132 KIM DARE F 43 35:27 11:25 F4044 GILBERT, AZ

612 3594 MATT SIMPSON M 28 35:31 11:26 M2529 TEMPE, AZ

613 3578 LISA NEARY F 29 35:35 11:28 F2529 LAVEEN, AZ

614 3878 CASSIE WORLEY F 25 35:36 11:28 F2529 CHANDLER, AZ

615 3873 ROSE VITERBO F 45 35:36 11:28 F4549 PHOENIX, AZ

616 3601 ANDY TIGHE M 49 35:41 11:29 M4549 GILBERT, AZ

617 866 KRISTINA RAY F 28 35:43 11:30 F2529 CHANDLER, AZ

618 6642 SANDY STABLER F 41 35:43 11:30 F4044 ,

619 3990 RAHMAR SHELTON M 35 35:47 11:31 M3539 PHOENIX, AZ

620 4007 ANNIELAURIE VAN WIE F 36 35:47 11:31 F3539 PHOENIX, AZ

621 2570 PEARL SOQUI F 45 35:50 11:32 F4549 MARICOPA, AZ

622 2704 ROBERTA PARKER F 72 36:00 11:35 F7074 MORRISTOWN, AZ

623 6640 CARSON ARNOLD F 11 36:06 11:37 F1115 ,

624 6638 TORI ARNOLD F 38 36:06 11:37 F3539 ,

625 649 BRADLEY SOMERO M 46 36:07 11:38 M4549 PHOENIX, AZ

626 2507 KATHY BELFIORE F 36 36:10 11:39 F3539 PHOENIX, AZ

627 6015 MARTHA QUINTANA M 52 36:10 11:39 M5054 ,

628 769 BRYAN WOFFORD M 28 36:12 11:39 M2529 PHOENIX, AZ

629 6630 KRISTY VARGAS F 29 36:13 11:40 F2529 ,

630 720 JESSIE CEDENO F 34 36:14 11:40 F3034 PHOENIX, AZ

631 3692 DONNA JOHNSON F 42 36:22 11:43 F4044 PARADISE VALLEY, AZ

632 6373 SUE SMITH F 67 36:23 11:43 F6569 ,

633 528 LINDA DELANEY F 57 36:31 11:46 F5559 GLENDALE, AZ

634 1163 YVETTE SONNENBERG F 36 36:33 11:46 F3539 GILBERT, AZ

635 3808 LINDA GUERTIN F 35 36:34 11:47 F3539 PEORIA, AZ

636 891 KENI MITERER M 37 36:40 11:49 M3539 TEMPE, AZ

637 890 JULIANN COUTURE F 29 36:40 11:49 F2529 TEMPE, AZ

638 1514 CHRISTINA PULSIFER F 40 36:43 11:49 F4044 CHANDLER, AZ

639 2340 ADRIANA PARRA F 35 36:46 11:50 F3539 GLENDALE, AZ

640 972 MARYLYNN KRETCHMAR F 59 36:52 11:52 F5559 SCOTTSDALE, AZ

641 700 BRIANNA DUONG F 13 36:54 11:53 F1115 CHANDLER, AZ

642 413 SCOTT ROOKS M 44 36:55 11:53 M4044 PHOENIX, AZ

643 1009 SCOTT GILDAR M 21 36:56 11:54 M2024 SCOTTSDALE, AZ

644 3765 ELIZABETH WOOF F 25 36:57 11:54 F2529 CHANDLER, AZ

645 760 BETH DICKSON F 44 36:59 11:55 F4044 PHOENIX, AZ

646 759 KATLIN DICKSON F 13 36:59 11:55 F1115 PHOENIX, AZ

647 6406 SANDRA DALGAI F 32 37:04 11:56 F3034 ,

648 6399 NIKELE KOVACH F 32 37:11 11:58 F3034 ,

649 6726 UNKNOWN ENTRANT X 99 37:14 11:59 X9999 ,

650 4077 CHARLENE LAUGHING F 38 37:16 12:00 F3539 CASA GRANDE, AZ

651 317 LENA CHARLEY M 52 37:18 12:01 M5054 CHINLE, AZ

652 6134 CARRIE DIXON F 39 37:20 12:01 F3539 ,

653 6018 ANNETTE CANEZ F 31 37:23 12:02 F3034 ,

654 6035 CATHY GOBINS F 69 37:25 12:03 F6569 ,

655 1795 DEBORAH GOBINS F 50 37:25 12:03 F5054 PHOENIX, AZ

656 2345 SHARON ZANDER F 42 37:27 12:04 F4044 MESA, AZ

657 566 ROBERT YOUNG M 65 37:29 12:04 M6569 PHOENIX, AZ

658 3175 JOANNE MCMORROW F 26 37:35 12:06 F2529 TEMPE, AZ

659 567 JOSEPH GARCIA M 20 37:37 12:07 M2024 GLENDALE, AZ

660 2814 CHRISTOPHER BOYLE II M 21 37:44 12:09 M2024 MESA, AZ

661 830 JEFF SMITH M 56 37:47 12:10 M5559 CHANDLER, AZ

662 3924 KIRSTEN DIAZ F 31 37:48 12:10 F3034 TEMPE, AZ

663 1480 ALLISON STUART F 37 37:52 12:12 F3539 PHOENIX, AZ

664 1475 CHRISTOPHER SCHMIDT M 28 37:53 12:12 M2529 GLENDALE, AZ

665 6727 UNKNOWN ENTRANT X 99 37:56 12:13 X9999 ,

666 6728 UNKNOWN ENTRANT X 99 37:56 12:13 X9999 ,

667 4062 PEGGY IRELAN F 32 37:56 12:13 F3034 CHANDLER, AZ

668 1543 LINDA ROBERTS F 44 37:57 12:13 F4044 PHOENIX, AZ

669 1544 DAVID ZAVALETA M 46 37:57 12:13 M4549 HIGLEY, AZ

670 6539 TOBIN SHORT M 37 38:00 12:14 M3539 ,

671 534 CAROLYN MCGEE F 37 38:01 12:15 F3539 GLENDALE, AZ

672 1513 MARC PULSIFER M 39 38:02 12:15 M3539 CHANDLER, AZ

673 1075 KIM TAYLOR F 33 38:05 12:16 F3034 SCOTTSDALE, AZ

674 1692 BARBARA MCLEMORE F 42 38:05 12:16 F4044 PHOENIX, AZ

675 3496 ELIZABETH ALLEN F 61 38:07 12:16 F6064 MESA, AZ

676 2520 LUCY DIMARZIO F 68 38:09 12:17 F6569 SCOTTSDALE, AZ

677 1683 DAVID JOHNSTON M 57 38:12 12:18 M5559 MESA, AZ

678 6639 KYLE ARNOLD M 6 38:14 12:19 M0110 ,

679 1463 SANDI WEST F 31 38:14 12:19 F3034 PHOENIX, AZ

680 1262 JENNIFER BOWEN F 26 38:23 12:21 F2529 MESA, AZ

681 1261 JAN KOEHN F 46 38:23 12:22 F4549 CHANDLER, AZ

682 6729 UNKNOWN ENTRANT X 99 38:26 12:22 X9999 ,

683 1526 LILIAN GATEERE F 30 38:26 12:23 F3034 GILBERT, AZ

684 2212 JIM TROCHE M 59 38:26 12:23 M5559 CHANDLER, AZ

685 1008 JOEL GILDAR M 57 38:40 12:27 M5559 SCOTTSDALE, AZ

686 6710 CANDIS DIXON-CONNOR F 22 38:45 12:29 F2024 LAVEEN, AZ

687 6263 DEBI ODELL F 49 38:49 12:30 F4549 ,

688 2256 CLAUDIA ZAMARRON F 22 38:59 12:33 F2024 PHOENIX, AZ

689 1464 ROBERTA TINDELL F 40 39:08 12:36 F4044 PHOENIX, AZ

690 3472 KRIS WILLIAMS F 46 39:22 12:41 F4549 GILBERT, AZ

691 2546 JUDI LONGMEYER F 64 39:24 12:41 F6064 PHOENIX, AZ

692 2590 MICHELLE MORGAN F 42 39:26 12:42 F4044 PEORIA, AZ

693 6109 KIM PLANCHARD F 41 39:27 12:42 F4044 ,

694 555 MARILYN HAAS F 58 39:33 12:44 F5559 GLENDALE, AZ

695 3052 DAVID HURD M 58 39:36 12:45 M5559 CHANDLER, AZ

696 971 MICHELLE WILENSKY F 17 39:39 12:46 F1619 SCOTTSDALE, AZ

697 764 KRISTIN LENZ F 17 39:43 12:47 F1619 PHOENIX, AZ

698 6730 UNKNOWN ENTRANT X 99 39:43 12:47 X9999 ,

699 3614 WENDY BENAVIDES F 27 39:45 12:48 F2529 PEORIA, AZ

700 786 JUDITH OLIVIER F 48 39:50 12:50 F4549 GILBERT, AZ

701 2401 DAWN DELL'ERGO F 29 39:57 12:52 F2529 PHOENIX, AZ

702 1133 NANCY RUSH F 44 40:04 12:54 F4044 GILBERT, AZ

703 466 JESSICA KAPUSHINSKI F 49 40:05 12:54 F4549 SCOTTSDALE, AZ

704 731 COLIN JR RUANE M 13 40:07 12:55 M1115 CHANDLER, AZ

705 6367 RICHARD NGUYEN M 11 40:18 12:59 M1115 ,

706 3001 JOHN HALEY M 67 40:34 13:04 M6569 CHANDLER, AZ

707 6560 LENA NEZ F 53 40:54 13:10 F5054 ,

708 372 JOY TUVE F 55 40:55 13:11 F5559 GLENDALE, AZ

709 1565 KARI GAYES F 24 41:00 13:12 F2024 CHANDLER, AZ

710 3999 KATHLEEN TAYLOR F 50 41:10 13:15 F5054 QUEEN CREEK, AZ

711 1190 LISA HUYNH F 21 41:11 13:16 F2024 MESA, AZ

712 6108 DEBRA SUTTON F 37 41:12 13:16 F3539 ,

713 3602 BILLIE TIGHE F 57 41:16 13:17 F5559 GILBERT, AZ

714 1058 NANCY BARRICK F 55 41:18 13:18 F5559 GLENDALE, AZ

715 4135 JUDY VIGNJEVIC F 36 41:19 13:18 F3539 CHANDLER, AZ

716 1035 KELLY TURNAU F 22 41:28 13:21 F2024 SCOTTSDALE, AZ

717 1082 AIMEE WORGULL F 35 41:36 13:24 F3539 TEMPE, AZ

718 371 BARB HERRON F 58 41:36 13:24 F5559 PEORIA, AZ

719 6656 TOMMY CRUTCHFIELD M 26 41:37 13:24 M2529 ,

720 6655 BEN YBARRA M 26 41:37 13:24 M2529 ,

721 1533 GERRY CAMPOS M 35 41:39 13:25 M3539 ANTHEM, AZ

722 3786 LOUISE BRAUNBECK F 62 41:43 13:26 F6064 QUEEN CREEK, AZ

723 3216 LESLIE NEPVEUX F 26 41:46 13:27 F2529 PHOENIX, AZ

724 1517 TOM FOY M 65 41:55 13:30 M6569 MESA, AZ

725 6587 COLLEEN CASTILLO F 43 42:05 13:33 F4044 ,

726 6702 STEPHANIE ONG F 10 42:13 13:36 F0110 CHANDLER, AZ

727 684 DANIEL ONG M 45 42:15 13:36 M4549 CHANDLER, AZ

728 1836 DOUG WHITNEYBELL M 67 42:17 13:37 M6569 PHOENIX, AZ

729 6657 MATTHEW MURPHY M 5 42:21 13:38 M0110 ,

730 2405 KINDRA CHEREVKA F 29 42:48 13:47 F2529 AVONDALE, AZ

731 6293 JEN WOODLING F 28 43:04 13:52 F2529 ,

732 6290 CHRISTINE FRANCO F 30 43:04 13:52 F3034 ,

733 6294 MARENA CANESE F 18 43:04 13:52 F1619 ,

734 627 CONG NGUYEN M 52 43:11 13:54 M5054 CHANDLER, AZ

735 218 SHERI JACKSON F 44 43:31 14:01 F4044 PHOENIX, AZ

736 6209 EVA RECENTIO F 58 43:31 14:01 F5559 ,

737 3395 LINA TCHEREMISINA F 27 43:35 14:02 F2529 SCOTTSDALE, AZ

738 3143 ROBERT MACDONALD M 56 43:39 14:03 M5559 PHOENIX, AZ

739 3984 KIERI ROZENWASER F 14 43:51 14:07 F1115 SCOTTSDALE, AZ

740 1231 JUDY HOYOS F 63 43:56 14:09 F6064 GILBERT, AZ

741 3641 CASSANDRA BROOKS F 16 43:57 14:09 F1619 GLENDALE, AZ

742 3676 SHARI GRIECO F 41 43:57 14:09 F4044 GLENDALE, AZ

743 513 VICKIE SMITH F 53 43:58 14:10 F5054 PHOENIX, AZ

744 6120 THEODORE W MILLER M 75 44:02 14:11 M7598 ,

745 3918 NATALIE CLINTON F 15 44:10 14:13 F1115 SCOTTSDALE, AZ

746 3955 RACHEL KINER F 13 44:10 14:13 F1115 SCOTTSDALE, AZ

747 3497 MICHELLE ARANA F 23 44:13 14:14 F2024 PHOENIX, AZ

748 1176 GENE MARTINEZ M 65 44:15 14:15 M6569 GILBERT, AZ

749 6052 DURGESH RAJAN ILANGO M 11 44:41 14:23 M1115 ,

750 965 BOB WAJDA M 62 44:42 14:23 M6064 SCOTTSDALE, AZ

751 6030 ANASTASIA KONUMUS M 53 44:43 14:24 M5054 ,

752 6028 CANDY HARTWELL F 36 44:45 14:25 F3539 ,

753 1036 MONICA CRESPO F 21 45:01 14:30 F2024 MESA, AZ

754 6594 BILL ROBERTS M 60 45:04 14:31 M6064 ,

755 115 SHANNON COMSTOCK F 28 45:22 14:37 F2529 SCOTTSDALE, AZ

756 483 WENDY FISH F 42 45:27 14:38 F4044 PHOENIX, AZ

757 366 GEORGE HEBERLING M 77 45:50 14:46 M7598 PHOENIX, AZ

758 6101 KAREN DAVIS F 49 45:51 14:46 F4549 ,

759 2591 JANET DUFRESNE F 46 46:02 14:49 F4549 PEORIA, AZ

760 1230 RUDY HOYOS M 61 46:18 14:55 M6064 GILBERT, AZ

761 1595 SARAH SAROTA F 12 46:42 15:02 F1115 MESA, AZ

762 1516 PEARL FOY F 59 46:49 15:04 F5559 MESA, AZ

763 3063 TINA JADA M 39 47:45 15:22 M3539 GOLD CANYON, AZ

764 525 EMILY SALAZAR F 10 48:11 15:31 F0110 PHOENIX, AZ

765 522 LISA SALAZAR F 46 48:12 15:31 F4549 PHOENIX, AZ

766 2549 ELISE MICHELSON F 59 48:17 15:33 F5559 GILBERT, AZ

767 3689 KEVIN HOLMES M 36 49:17 15:52 M3539 MARICOPA, AZ

768 6365 SARAH PORTER F 20 49:32 15:57 F2024 ,

769 287 BRENDA STEELE F 34 49:58 16:05 F3034 PHOENIX, AZ

770 6658 PATTY VAN WEST F 45 50:04 16:07 F4549 ,

771 938 STEVE WILLIAMS M 48 50:21 16:13 M4549 SCOTTSDALE, AZ

772 6212 SANDY CHILCOTT F 42 51:15 16:30 F4044 ,

773 732 MARSHALL RUANE M 13 51:36 16:37 M1115 CHANDLER, AZ

774 6208 MARLEIGH FLETCHER F 50 52:29 16:54 F5054 ,

775 360 RJ KERSHNAR F 59 53:33 17:15 F5559 PHOENIX, AZ

776 2376 ANN-MARGRET HOWARD F 42 53:42 17:17 F4044 SCOTTSDALE, AZ

777 3966 RALPH MCGRATH M 64 54:34 17:34 M6064 SCOTTSDALE, AZ

778 2739 AMANDA NAVA F 33 54:49 17:39 F3034 SCOTTSDALE, AZ

779 2586 MEGAN WIESER F 12 55:47 17:58 F1115 GLENDALE, AZ

780 2585 KAY WIESER F 49 55:47 17:58 F4549 GLENDALE, AZ

781 1001 MARGARITA SARGENT F 41 56:23 18:09 F4044 MESA, AZ

782 6712 HENRY GLOGOSH M 67 56:27 18:11 M6569 SCOTTSDALE, AZ

783 6024 CATHY DEKASTROZZA F 53 57:20 18:28 F5054 ,

784 3416 JENNIFER VALDEZ F 43 58:04 18:42 F4044 PHOENIX, AZ

785 1338 THOMAS JEFFERSON M 50 1:00:11 19:23 M5054 SCOTTSDALE, AZ

786 1339 DAWN JEFFERSON F 16 1:00:11 19:23 F1619 SCOTTSDALE, AZ

787 3212 LEELAVATI NATU F 60 1:01:51 19:55 F6064 SCOTTSDALE, AZ

788 6032 DARLENE HIBBS F 27 1:02:02 19:58 F2529 ,

789 6034 JESSICA SMITH F 0 1:02:02 19:58 ,

790 6383 JAMAAL MATHEWS M 31 1:02:18 20:04 M3034 ,

  • Discuss

Attorney General Forum - Question 1

Attorney General candidates Republican Mark Brnovich and Democrat Felecia Rotellini debate at ...

Facebook

EastValleyTribune.com on Facebook

Twitter

EastValleyTribune.com on Twitter

Google+

EastValleyTribune.com on Google+

RSS

Subscribe to EastValleyTribune.com via RSS

RSS Feeds

Spacer4px
Your Az Jobs